Time;durP1;ratioP1;P1;durP2;ratioP2;P2;SDS_P1;SDS_P2;PMS_P1;PMS_P2;Temp;Humidity;BMP_temperature;BMP_pressure;BME280_temperature;BME280_humidity;BME280_pressure;Samples;Min_cycle;Max_cycle;Signal;HPM_P1;HPM_P2
2023/01/20 00:00:26;;;;;;;;;;;;;;;;;;5015148;28;7024;-73
2023/01/20 00:02:54;;;;;;;;;;;;;;;;;;5015238;28;7130;-73
2023/01/20 00:05:20;;;;;;;;;;;;;;;;;;5021076;28;7914;-73
2023/01/20 00:10:59;;;;;;;;;;;;;;;;;;5034718;28;6964;-73
2023/01/20 00:13:25;;;;;;;;;;;;;;;;;;5034561;28;7021;-73
2023/01/20 00:15:50;;;;;;;;;;;;;;;;;;5034876;28;7329;-73
2023/01/20 00:18:33;;;;;;;;;;;;;;;;;;5034604;28;7156;-73
2023/01/20 00:21:03;;;;;;;;;;;;;;;;;;5033414;28;7204;-73
2023/01/20 00:23:50;;;;;;;;;;;;;;;;;;5034215;28;7208;-73
2023/01/20 00:26:18;;;;;;;;;;;;;;;;;;5034739;28;7058;-73
2023/01/20 00:35:01;;;;;;;;;;;;;;;;;;5034787;28;6975;-73
2023/01/20 00:40:30;;;;;;;;;;;;;;;;;;5034464;28;6947;-73
2023/01/20 00:43:04;;;;;;;;;;;;;;;;;;5034469;28;6959;-73
2023/01/20 00:45:30;;;;;;;;;;;;;;;;;;5034486;28;7401;-73
2023/01/20 00:47:55;;;;;;;;;;;;;;;;;;5035345;28;7003;-73
2023/01/20 01:08:38;;;;;;;;;;;;;;;;;;5017976;28;7012;-73
2023/01/20 01:14:20;;;;;;;;;;;;;;;;;;5018220;28;6749;-73
2023/01/20 01:16:45;;;;;;;;;;;;;;;;;;5000886;28;8436;-73
2023/01/20 01:19:11;;;;;;;;;;;;;;;;;;5018240;28;7126;-73
2023/01/20 01:21:36;;;;;;;;;;;;;;;;;;5018219;28;7189;-73
2023/01/20 01:24:02;;;;;;;;;;;;;;;;;;5018177;28;6917;-73
2023/01/20 01:29:38;;;;;;;;;;;;;;;;;;5017655;28;6674;-73
2023/01/20 01:32:04;;;;;;;;;;;;;;;;;;5018003;28;7295;-73
2023/01/20 01:34:30;;;;;;;;;;;;;;;;;;5018101;28;6960;-73
2023/01/20 01:36:55;;;;;;;;;;;;;;;;;;5017930;28;7122;-73
2023/01/20 01:45:28;;;;;;;;;;;;;;;;;;5017549;28;6978;-73
2023/01/20 01:51:01;;;;;;;;;;;;;;;;;;5017653;28;6678;-74
2023/01/20 01:56:45;;;;;;;;;;;;;;;;;;5017170;28;6920;-74
2023/01/20 01:59:13;;;;;;;;;;;;;;;;;;5017623;28;7175;-74
2023/01/20 02:07:51;;;;;;;;;;;;;;;;;;5037011;28;6909;-74
2023/01/20 02:13:19;;;;;;;;;;;;;;;;;;5036897;28;6685;-74
2023/01/20 02:19:06;;;;;;;;;;;;;;;;;;5037401;28;6685;-74
2023/01/20 02:24:53;;;;;;;;;;;;;;;;;;5036913;28;6681;-74
2023/01/20 02:30:27;;;;;;;;;;;;;;;;;;5036090;28;6984;-74
2023/01/20 02:39:04;;;;;;;;;;;;;;;;;;5036195;28;7028;-74
2023/01/20 02:53:56;;;;;;;;;;;;;;;;;;5036582;28;6917;-74
2023/01/20 02:56:26;;;;;;;;;;;;;;;;;;5036215;28;7144;-74
2023/01/20 02:58:56;;;;;;;;;;;;;;;;;;5036364;28;7190;-74
2023/01/20 03:01:40;;;;;;;;;;;;;;;;;;5036280;28;7430;-74
2023/01/20 03:04:10;;;;;;;;;;;;;;;;;;5036174;28;7924;-74
2023/01/20 03:06:39;;;;;;;;;;;;;;;;;;5036947;28;7050;-74
2023/01/20 03:09:09;;;;;;;;;;;;;;;;;;5036096;28;7171;-74
2023/01/20 03:12:04;;;;;;;;;;;;;;;;;;5035947;28;7374;-74
2023/01/20 03:14:30;;;;;;;;;;;;;;;;;;5036092;28;6968;-74
2023/01/20 03:16:56;;;;;;;;;;;;;;;;;;5035908;28;7132;-74
2023/01/20 03:22:24;;;;;;;;;;;;;;;;;;5035744;28;6701;-75
2023/01/20 03:24:51;;;;;;;;;;;;;;;;;;5035523;28;6939;-75
2023/01/20 03:27:17;;;;;;;;;;;;;;;;;;5035681;28;6956;-75
2023/01/20 03:32:52;;;;;;;;;;;;;;;;;;5015622;28;6931;-75
2023/01/20 03:35:18;;;;;;;;;;;;;;;;;;5015813;28;7336;-75
2023/01/20 03:41:18;;;;;;;;;;;;;;;;;;5015633;28;6678;-75
2023/01/20 03:47:07;;;;;;;;;;;;;;;;;;4974555;28;6764;-75
2023/01/20 03:49:51;;;;;;;;;;;;;;;;;;4974490;28;7460;-75
2023/01/20 03:52:40;;;;;;;;;;;;;;;;;;4974476;28;7330;-75
2023/01/20 03:55:21;;;;;;;;;;;;;;;;;;4980159;28;7211;-75
2023/01/20 04:03:54;;;;;;;;;;;;;;;;;;5015010;28;6936;-75
2023/01/20 04:09:27;;;;;;;;;;;;;;;;;;5015018;28;6933;-75
2023/01/20 04:14:55;;;;;;;;;;;;;;;;;;5015015;28;6685;-75
2023/01/20 04:17:28;;;;;;;;;;;;;;;;;;5015219;28;7433;-75
2023/01/20 04:19:55;;;;;;;;;;;;;;;;;;5015058;28;7460;-75
2023/01/20 04:22:28;;;;;;;;;;;;;;;;;;5014498;28;6932;-75
2023/01/20 04:24:59;;;;;;;;;;;;;;;;;;5015014;28;7297;-75
2023/01/20 04:27:25;;;;;;;;;;;;;;;;;;5014931;28;7481;-75
2023/01/20 04:29:52;;;;;;;;;;;;;;;;;;5014912;28;6960;-75
2023/01/20 04:32:17;;;;;;;;;;;;;;;;;;5014822;28;7032;-75
2023/01/20 04:34:43;;;;;;;;;;;;;;;;;;5014383;28;7139;-75
2023/01/20 04:37:19;;;;;;;;;;;;;;;;;;5014758;28;7130;-75
2023/01/20 04:39:45;;;;;;;;;;;;;;;;;;5014723;28;7146;-75
2023/01/20 04:42:10;;;;;;;;;;;;;;;;;;5014685;28;7266;-75
2023/01/20 04:47:39;;;;;;;;;;;;;;;;;;5014672;28;6673;-75
2023/01/20 04:53:12;;;;;;;;;;;;;;;;;;5014529;28;6933;-75
2023/01/20 04:55:38;;;;;;;;;;;;;;;;;;5013420;28;7606;-75
2023/01/20 05:01:07;;;;;;;;;;;;;;;;;;5014265;28;6961;-75
2023/01/20 05:03:33;;;;;;;;;;;;;;;;;;4996944;28;8492;-75
2023/01/20 05:06:34;;;;;;;;;;;;;;;;;;5014478;28;7087;-75
2023/01/20 05:09:00;;;;;;;;;;;;;;;;;;5014261;28;9064;-75
2023/01/20 05:11:27;;;;;;;;;;;;;;;;;;5014453;28;7389;-75
2023/01/20 05:13:53;;;;;;;;;;;;;;;;;;5014787;28;7204;-75
2023/01/20 05:16:22;;;;;;;;;;;;;;;;;;5014396;28;7153;-75
2023/01/20 05:25:04;;;;;;;;;;;;;;;;;;5014182;28;6941;-75
2023/01/20 05:27:29;;;;;;;;;;;;;;;;;;5015472;28;6961;-75
2023/01/20 05:29:55;;;;;;;;;;;;;;;;;;5014485;28;7427;-75
2023/01/20 05:35:23;;;;;;;;;;;;;;;;;;5014172;28;6685;-74
2023/01/20 05:40:57;;;;;;;;;;;;;;;;;;5013925;28;6929;-76
2023/01/20 05:43:23;;;;;;;;;;;;;;;;;;5014185;28;7181;-76
2023/01/20 05:48:52;;;;;;;;;;;;;;;;;;5017642;28;6963;-76
2023/01/20 05:51:17;;;;;;;;;;;;;;;;;;5034063;28;6914;-76
2023/01/20 05:53:43;;;;;;;;;;;;;;;;;;5037339;28;7024;-76
2023/01/20 05:56:10;;;;;;;;;;;;;;;;;;5037275;28;7496;-76
2023/01/20 05:58:46;;;;;;;;;;;;;;;;;;5036944;28;7560;-76
2023/01/20 06:01:13;;;;;;;;;;;;;;;;;;5036585;28;7051;-76
2023/01/20 06:03:44;;;;;;;;;;;;;;;;;;5036763;28;7321;-76
2023/01/20 06:06:14;;;;;;;;;;;;;;;;;;5037276;28;7255;-76
2023/01/20 06:08:41;;;;;;;;;;;;;;;;;;5037181;28;7099;-76
2023/01/20 06:11:06;;;;;;;;;;;;;;;;;;5037029;28;7688;-76
2023/01/20 06:13:32;;;;;;;;;;;;;;;;;;5037071;28;7040;-76
2023/01/20 06:16:15;;;;;;;;;;;;;;;;;;5037083;28;7113;-76
2023/01/20 06:18:40;;;;;;;;;;;;;;;;;;5036733;28;7321;-76
2023/01/20 07:02:15;;;;;;;;;;;;;;;;;;5512507;23;7015;-76
2023/01/20 07:05:08;;;;;;;;;;;;;;;;;;4987060;28;7186;-76
2023/01/20 07:07:34;;;;;;;;;;;;;;;;;;4973158;28;7238;-76
2023/01/20 07:10:08;;;;;;;;;;;;;;;;;;4989374;28;8839;-76
2023/01/20 07:12:34;;;;;;;;;;;;;;;;;;4988073;28;8404;-76
2023/01/20 07:15:06;;;;;;;;;;;;;;;;;;4957577;28;7165;-76
2023/01/20 07:17:32;;;;;;;;;;;;;;;;;;4958871;28;7731;-78
2023/01/20 07:20:09;;;;;;;;;;;;;;;;;;4957533;28;6928;-73
2023/01/20 07:22:34;;;;;;;;;;;;;;;;;;4957615;28;7061;-77
2023/01/20 07:24:59;;;;;;;;;;;;;;;;;;4957617;28;6901;-77
2023/01/20 07:27:36;;;;;;;;;;;;;;;;;;4957614;28;7208;-77
2023/01/20 07:30:01;;;;;;;;;;;;;;;;;;4957631;28;7194;-77
2023/01/20 07:32:35;;;;;;;;;;;;;;;;;;4957477;28;6912;-76
2023/01/20 07:35:00;;;;;;;;;;;;;;;;;;4957098;28;7091;-76
2023/01/20 07:37:26;;;;;;;;;;;;;;;;;;4957319;28;7143;-76
2023/01/20 07:40:17;;;;;;;;;;;;;;;;;;4957286;28;7205;-76
2023/01/20 07:42:43;;;;;;;;;;;;;;;;;;4957201;28;7117;-75
2023/01/20 07:45:14;;;;;;;;;;;;;;;;;;4972397;28;6920;-71
2023/01/20 07:47:40;;;;;;;;;;;;;;;;;;4956963;28;7012;-72
2023/01/20 07:50:10;;;;;;;;;;;;;;;;;;4957190;28;7156;-75
2023/01/20 07:52:35;;;;;;;;;;;;;;;;;;4957102;28;6893;-75
2023/01/20 07:55:18;;;;;;;;;;;;;;;;;;4971100;28;7429;-71
2023/01/20 07:57:43;;;;;;;;;;;;;;;;;;4976646;28;7148;-71
2023/01/20 08:00:09;;;;;;;;;;;;;;;;;;4976283;28;7348;-72
2023/01/20 08:05:48;;;;;;;;;;;;;;;;;;4976456;28;6697;-71
2023/01/20 08:08:13;;;;;;;;;;;;;;;;;;4975666;28;7343;-71
2023/01/20 08:11:16;;;;;;;;;;;;;;;;;;4975917;28;6966;-71
2023/01/20 08:13:42;;;;;;;;;;;;;;;;;;4976160;28;7613;-71
2023/01/20 08:19:37;;;;;;;;;;;;;;;;;;4975851;28;6686;-71
2023/01/20 08:22:02;;;;;;;;;;;;;;;;;;4976018;28;7307;-72
2023/01/20 08:27:36;;;;;;;;;;;;;;;;;;4975734;28;7026;-72
2023/01/20 08:30:03;;;;;;;;;;;;;;;;;;4991129;28;9059;-74
2023/01/20 08:32:52;;;;;;;;;;;;;;;;;;4975543;28;6976;-74
2023/01/20 08:35:18;;;;;;;;;;;;;;;;;;4990661;28;8417;-75
2023/01/20 08:38:02;;;;;;;;;;;;;;;;;;4975847;28;7261;-74
2023/01/20 08:40:27;;;;;;;;;;;;;;;;;;4975529;28;7404;-75
2023/01/20 08:43:30;;;;;;;;;;;;;;;;;;4981891;28;6906;-75
2023/01/20 08:46:01;;;;;;;;;;;;;;;;;;4995147;28;7069;-75
2023/01/20 08:48:27;;;;;;;;;;;;;;;;;;4994827;28;6815;-74
2023/01/20 08:50:53;;;;;;;;;;;;;;;;;;4995090;28;7418;-74
2023/01/20 08:53:18;;;;;;;;;;;;;;;;;;4993923;28;8500;-75
2023/01/20 09:01:49;;;;;;;;;;;;;;;;;;4991946;28;6712;-74
2023/01/20 09:04:15;;;;;;;;;;;;;;;;;;4995835;28;7173;-75
2023/01/20 09:06:48;;;;;;;;;;;;;;;;;;4995063;28;7118;-75
2023/01/20 09:09:15;;;;;;;;;;;;;;;;;;4994673;28;6930;-74
2023/01/20 09:14:31;;;;;;;;;;;;;;;;;;4994908;28;7080;-76
2023/01/20 09:17:16;;;;;;;;;;;;;;;;;;4994988;28;7061;-76
2023/01/20 09:19:42;;;;;;;;;;;;;;;;;;4994955;28;7210;-75
2023/01/20 09:25:24;;;;;;;;;;;;;;;;;;4998454;28;6678;-76
2023/01/20 09:27:50;;;;;;;;;;;;;;;;;;4998274;28;8141;-76
2023/01/20 09:33:18;;;;;;;;;;;;;;;;;;4994553;28;6679;-76
2023/01/20 09:44:55;;;;;;;;;;;;;;;;;;4978463;28;6781;-76
2023/01/20 09:53:33;;;;;;;;;;;;;;;;;;4977313;28;7520;-76
2023/01/20 09:56:02;;;;;;;;;;;;;;;;;;4978790;28;7556;-76
2023/01/20 10:07:56;;;;;;;;;;;;;;;;;;4978602;28;6937;-76
2023/01/20 10:10:28;;;;;;;;;;;;;;;;;;4978497;28;7083;-76
2023/01/20 10:13:00;;;;;;;;;;;;;;;;;;4978536;28;7139;-71
2023/01/20 10:15:28;;;;;;;;;;;;;;;;;;4978419;28;6981;-72
2023/01/20 10:18:30;;;;;;;;;;;;;;;;;;4978169;28;7115;-71
2023/01/20 10:21:17;;;;;;;;;;;;;;;;;;4978337;28;7231;-71
2023/01/20 10:48:05;;;;;;;;;;;;;;;;;;4956580;28;6678;-71
2023/01/20 10:50:33;;;;;;;;;;;;;;;;;;4956226;28;6949;-71
2023/01/20 10:59:12;;;;;;;;;;;;;;;;;;4956076;28;7085;-71
2023/01/20 11:01:38;;;;;;;;;;;;;;;;;;4955060;28;7164;-71
2023/01/20 11:04:04;;;;;;;;;;;;;;;;;;4956090;28;7157;-71
2023/01/20 11:06:30;;;;;;;;;;;;;;;;;;4957003;28;7175;-71
2023/01/20 11:12:03;;;;;;;;;;;;;;;;;;4958212;28;6793;-71
2023/01/20 11:14:30;;;;;;;;;;;;;;;;;;4957869;28;6985;-71
2023/01/20 11:17:01;;;;;;;;;;;;;;;;;;4957946;28;7168;-71
2023/01/20 11:31:40;;;;;;;;;;;;;;;;;;4957792;28;6805;-71
2023/01/20 11:34:27;;;;;;;;;;;;;;;;;;4957542;28;7178;-71
2023/01/20 11:39:49;;;;;;;;;;;;;;;;;;4957051;28;6769;-71
2023/01/20 11:48:41;;;;;;;;;;;;;;;;;;4957182;28;6678;-71
2023/01/20 11:57:20;;;;;;;;;;;;;;;;;;4957223;28;6678;-71
2023/01/20 11:59:48;;;;;;;;;;;;;;;;;;4956582;28;7017;-71
2023/01/20 12:02:13;;;;;;;;;;;;;;;;;;4961500;28;7175;-71
2023/01/20 12:07:55;;;;;;;;;;;;;;;;;;4973962;28;6941;-71
2023/01/20 12:14:18;;;;;;;;;;;;;;;;;;4975958;28;6686;-71
2023/01/20 12:22:21;;;;;;;;;;;;;;;;;;4976004;28;6762;-71
2023/01/20 12:27:32;;;;;;;;;;;;;;;;;;4976011;28;6769;-71
2023/01/20 12:33:11;;;;;;;;;;;;;;;;;;4975665;28;6682;-71
2023/01/20 12:35:41;;;;;;;;;;;;;;;;;;4975940;28;7392;-71
2023/01/20 12:38:19;;;;;;;;;;;;;;;;;;4975634;28;7060;-71
2023/01/20 12:40:51;;;;;;;;;;;;;;;;;;4975919;28;7129;-71
2023/01/20 12:43:35;;;;;;;;;;;;;;;;;;4957742;28;7185;-71
2023/01/20 12:46:34;;;;;;;;;;;;;;;;;;4956596;28;7105;-71
2023/01/20 12:49:00;;;;;;;;;;;;;;;;;;4956615;28;7061;-71
2023/01/20 12:54:50;;;;;;;;;;;;;;;;;;4972477;28;6689;-70
2023/01/20 12:57:34;;;;;;;;;;;;;;;;;;4980572;28;7134;-71
2023/01/20 13:00:11;;;;;;;;;;;;;;;;;;4979581;28;7118;-71
2023/01/20 13:24:23;;;;;;;;;;;;;;;;;;4920154;29;7012;-76
2023/01/20 13:26:50;;;;;;;;;;;;;;;;;;4919673;29;6828;-76
2023/01/20 13:29:22;;;;;;;;;;;;;;;;;;4917746;29;7065;-76
2023/01/20 13:44:18;;;;;;;;;;;;;;;;;;4919762;29;6733;-76
2023/01/20 13:46:45;;;;;;;;;;;;;;;;;;4919285;29;6950;-76
2023/01/20 13:55:31;;;;;;;;;;;;;;;;;;4978736;28;6961;-76
2023/01/20 13:57:57;;;;;;;;;;;;;;;;;;4978747;28;7394;-76
2023/01/20 14:03:36;;;;;;;;;;;;;;;;;;4973998;28;6689;-76
2023/01/20 14:06:27;;;;;;;;;;;;;;;;;;4978301;28;7163;-76
2023/01/20 14:08:52;;;;;;;;;;;;;;;;;;4978104;28;7437;-76
2023/01/20 14:14:23;;;;;;;;;;;;;;;;;;4978366;28;7438;-76
2023/01/20 14:16:49;;;;;;;;;;;;;;;;;;4978831;28;7150;-76
2023/01/20 14:19:32;;;;;;;;;;;;;;;;;;4978148;28;7182;-76
2023/01/20 14:22:01;;;;;;;;;;;;;;;;;;4978063;28;6921;-76
2023/01/20 14:24:32;;;;;;;;;;;;;;;;;;4978067;28;7123;-76
2023/01/20 14:27:21;;;;;;;;;;;;;;;;;;4978118;28;6961;-76
2023/01/20 14:29:47;;;;;;;;;;;;;;;;;;4978387;28;7176;-76
2023/01/20 14:41:23;;;;;;;;;;;;;;;;;;4958650;28;6908;-76
2023/01/20 14:53:11;;;;;;;;;;;;;;;;;;4958114;28;7111;-76
2023/01/20 14:55:43;;;;;;;;;;;;;;;;;;4958441;28;7169;-76
2023/01/20 14:58:14;;;;;;;;;;;;;;;;;;4958244;28;6963;-76
2023/01/20 15:07:18;;;;;;;;;;;;;;;;;;4958165;28;6698;-76
2023/01/20 15:09:50;;;;;;;;;;;;;;;;;;4958103;28;7347;-76
2023/01/20 15:15:24;;;;;;;;;;;;;;;;;;4958182;28;7040;-76
2023/01/20 15:21:12;;;;;;;;;;;;;;;;;;4957793;28;6921;-76
2023/01/20 15:23:40;;;;;;;;;;;;;;;;;;4957758;28;7449;-76
2023/01/20 15:32:09;;;;;;;;;;;;;;;;;;4976833;28;6697;-76
2023/01/20 15:37:32;;;;;;;;;;;;;;;;;;4976834;28;7004;-74
2023/01/20 15:42:52;;;;;;;;;;;;;;;;;;4976660;28;7802;-74
2023/01/20 15:51:16;;;;;;;;;;;;;;;;;;4976467;28;6761;-75
2023/01/20 15:54:00;;;;;;;;;;;;;;;;;;4976224;28;7196;-75
2023/01/20 16:05:41;;;;;;;;;;;;;;;;;;4937701;29;6738;-75
2023/01/20 16:08:14;;;;;;;;;;;;;;;;;;4938208;29;7358;-75
2023/01/20 16:10:39;;;;;;;;;;;;;;;;;;4937885;28;7290;-75
2023/01/20 16:13:13;;;;;;;;;;;;;;;;;;4937732;29;7155;-75
2023/01/20 16:15:43;;;;;;;;;;;;;;;;;;4937731;28;7618;-75
2023/01/20 16:21:13;;;;;;;;;;;;;;;;;;4937368;29;6738;-75
2023/01/20 16:23:39;;;;;;;;;;;;;;;;;;4937623;29;7268;-75
2023/01/20 16:32:12;;;;;;;;;;;;;;;;;;4937248;29;7580;-75
2023/01/20 16:34:37;;;;;;;;;;;;;;;;;;4937392;29;7027;-74
2023/01/20 16:37:05;;;;;;;;;;;;;;;;;;4937475;29;7194;-74
2023/01/20 16:39:38;;;;;;;;;;;;;;;;;;4935898;29;8796;-75
2023/01/20 16:42:04;;;;;;;;;;;;;;;;;;4937145;28;7053;-75
2023/01/20 16:44:30;;;;;;;;;;;;;;;;;;4937095;29;6967;-75
2023/01/20 16:46:56;;;;;;;;;;;;;;;;;;4937916;29;7187;-75
2023/01/20 16:49:33;;;;;;;;;;;;;;;;;;4937403;29;6932;-75
2023/01/20 16:51:59;;;;;;;;;;;;;;;;;;4937155;29;7179;-75
2023/01/20 17:01:10;;;;;;;;;;;;;;;;;;4936861;29;6673;-75
2023/01/20 17:03:38;;;;;;;;;;;;;;;;;;4944843;28;7159;-75
2023/01/20 17:06:07;;;;;;;;;;;;;;;;;;4976456;28;7999;-75
2023/01/20 17:14:39;;;;;;;;;;;;;;;;;;4975225;28;6936;-75
2023/01/20 17:17:05;;;;;;;;;;;;;;;;;;4975554;28;7164;-75
2023/01/20 17:19:31;;;;;;;;;;;;;;;;;;4975595;28;6948;-75
2023/01/20 17:25:25;;;;;;;;;;;;;;;;;;4974992;28;6992;-75
2023/01/20 17:27:50;;;;;;;;;;;;;;;;;;4975397;28;7188;-75
2023/01/20 17:30:54;;;;;;;;;;;;;;;;;;4975559;28;6919;-75
2023/01/20 17:33:31;;;;;;;;;;;;;;;;;;4975078;28;7771;-75
2023/01/20 17:35:58;;;;;;;;;;;;;;;;;;4975574;28;7069;-75
2023/01/20 17:38:31;;;;;;;;;;;;;;;;;;4975359;28;7100;-75
2023/01/20 17:41:03;;;;;;;;;;;;;;;;;;4975694;28;7266;-75
2023/01/20 17:46:32;;;;;;;;;;;;;;;;;;4978680;28;6941;-75
2023/01/20 17:48:59;;;;;;;;;;;;;;;;;;4978498;28;7139;-75
2023/01/20 17:51:28;;;;;;;;;;;;;;;;;;4978643;28;7402;-75
2023/01/20 17:54:08;;;;;;;;;;;;;;;;;;4978841;28;7253;-75
2023/01/20 17:56:33;;;;;;;;;;;;;;;;;;4978423;28;8175;-75
2023/01/20 17:58:59;;;;;;;;;;;;;;;;;;4978557;28;7095;-75
2023/01/20 18:01:26;;;;;;;;;;;;;;;;;;4978507;28;7210;-75
2023/01/20 18:03:53;;;;;;;;;;;;;;;;;;4972939;28;7256;-75
2023/01/20 18:06:20;;;;;;;;;;;;;;;;;;4939749;28;7922;-75
2023/01/20 18:09:00;;;;;;;;;;;;;;;;;;4940166;29;7056;-75
2023/01/20 18:11:42;;;;;;;;;;;;;;;;;;4939927;28;7208;-75
2023/01/20 18:14:08;;;;;;;;;;;;;;;;;;4939993;29;7332;-75
2023/01/20 18:16:57;;;;;;;;;;;;;;;;;;4939822;29;7142;-75
2023/01/20 18:19:22;;;;;;;;;;;;;;;;;;4939431;29;7145;-75
2023/01/20 18:21:48;;;;;;;;;;;;;;;;;;4939924;29;7158;-75
2023/01/20 18:24:14;;;;;;;;;;;;;;;;;;4954459;28;7149;-75
2023/01/20 18:26:54;;;;;;;;;;;;;;;;;;4939775;29;6806;-75
2023/01/20 18:29:20;;;;;;;;;;;;;;;;;;4939725;29;7136;-75
2023/01/20 18:32:03;;;;;;;;;;;;;;;;;;4939528;29;7527;-75
2023/01/20 18:34:29;;;;;;;;;;;;;;;;;;4939574;29;7158;-75
2023/01/20 18:39:56;;;;;;;;;;;;;;;;;;4939335;29;6960;-75
2023/01/20 18:42:27;;;;;;;;;;;;;;;;;;4939486;29;7377;-75
2023/01/20 18:44:53;;;;;;;;;;;;;;;;;;4939537;29;7052;-75
2023/01/20 18:50:38;;;;;;;;;;;;;;;;;;4939078;29;6933;-75
2023/01/20 18:53:04;;;;;;;;;;;;;;;;;;4938727;29;7047;-75
2023/01/20 18:55:36;;;;;;;;;;;;;;;;;;4938925;29;7130;-75
2023/01/20 18:58:02;;;;;;;;;;;;;;;;;;4931481;29;6986;-75
2023/01/20 19:00:29;;;;;;;;;;;;;;;;;;4931580;29;7153;-75
2023/01/20 19:02:54;;;;;;;;;;;;;;;;;;4988022;28;7159;-75
2023/01/20 19:05:20;;;;;;;;;;;;;;;;;;4996464;28;7166;-75
2023/01/20 19:08:16;;;;;;;;;;;;;;;;;;4996882;28;7274;-75
2023/01/20 19:10:41;;;;;;;;;;;;;;;;;;4996705;28;7190;-75
2023/01/20 19:16:11;;;;;;;;;;;;;;;;;;4996596;28;6689;-75
2023/01/20 19:18:41;;;;;;;;;;;;;;;;;;4996736;28;7044;-75
2023/01/20 19:21:08;;;;;;;;;;;;;;;;;;4996583;28;7145;-74
2023/01/20 19:24:09;;;;;;;;;;;;;;;;;;4996487;28;7415;-74
2023/01/20 19:26:37;;;;;;;;;;;;;;;;;;4996586;28;6957;-74
2023/01/20 19:29:05;;;;;;;;;;;;;;;;;;4997249;28;7381;-74
2023/01/20 19:38:09;;;;;;;;;;;;;;;;;;4996134;28;6682;-74
2023/01/20 19:40:34;;;;;;;;;;;;;;;;;;4996825;28;7249;-74
2023/01/20 19:43:00;;;;;;;;;;;;;;;;;;4996214;28;7101;-74
2023/01/20 19:45:26;;;;;;;;;;;;;;;;;;4996047;28;7358;-74
2023/01/20 19:48:08;;;;;;;;;;;;;;;;;;4996094;28;6938;-74
2023/01/20 19:50:33;;;;;;;;;;;;;;;;;;4996222;28;6992;-74
2023/01/20 19:58:54;;;;;;;;;;;;;;;;;;4996190;28;6991;-74
2023/01/20 20:01:24;;;;;;;;;;;;;;;;;;4994329;28;7118;-74
2023/01/20 20:03:56;;;;;;;;;;;;;;;;;;4995746;28;6978;-74
2023/01/20 20:06:32;;;;;;;;;;;;;;;;;;4994771;28;7250;-74
2023/01/20 20:08:59;;;;;;;;;;;;;;;;;;4995776;28;7235;-73
2023/01/20 20:11:42;;;;;;;;;;;;;;;;;;4995883;28;7167;-73
2023/01/20 20:14:10;;;;;;;;;;;;;;;;;;4995761;28;7185;-73
2023/01/20 20:16:50;;;;;;;;;;;;;;;;;;4995299;28;7056;-73
2023/01/20 20:19:18;;;;;;;;;;;;;;;;;;4994423;28;7398;-73
2023/01/20 20:21:44;;;;;;;;;;;;;;;;;;4995255;28;6909;-73
2023/01/20 20:24:18;;;;;;;;;;;;;;;;;;4995302;28;6976;-73
2023/01/20 20:26:45;;;;;;;;;;;;;;;;;;4995230;28;7530;-73
2023/01/20 20:29:13;;;;;;;;;;;;;;;;;;4995231;28;7189;-73
2023/01/20 20:31:39;;;;;;;;;;;;;;;;;;4995256;28;6965;-73
2023/01/20 20:34:08;;;;;;;;;;;;;;;;;;4995177;28;7199;-73
2023/01/20 20:36:34;;;;;;;;;;;;;;;;;;4994042;28;8451;-73
2023/01/20 20:39:10;;;;;;;;;;;;;;;;;;4995076;28;6977;-73
2023/01/20 20:41:36;;;;;;;;;;;;;;;;;;4974292;28;8806;-73
2023/01/20 20:44:25;;;;;;;;;;;;;;;;;;4983643;28;7121;-73
2023/01/20 20:46:50;;;;;;;;;;;;;;;;;;4994809;28;7154;-73
2023/01/20 20:49:36;;;;;;;;;;;;;;;;;;4995242;28;7133;-73
2023/01/20 20:52:01;;;;;;;;;;;;;;;;;;4994825;28;9028;-72
2023/01/20 20:57:24;;;;;;;;;;;;;;;;;;4995428;28;7180;-72
2023/01/20 20:59:50;;;;;;;;;;;;;;;;;;4995046;28;7155;-71
2023/01/20 21:02:15;;;;;;;;;;;;;;;;;;4986871;28;7104;-71
2023/01/20 21:04:41;;;;;;;;;;;;;;;;;;4995170;28;6998;-71
2023/01/20 21:07:06;;;;;;;;;;;;;;;;;;4995122;28;7398;-71
2023/01/20 21:12:35;;;;;;;;;;;;;;;;;;4994827;28;6690;-71
2023/01/20 21:15:00;;;;;;;;;;;;;;;;;;4994951;28;7147;-71
2023/01/20 21:17:30;;;;;;;;;;;;;;;;;;4997885;28;7024;-72
2023/01/20 21:19:56;;;;;;;;;;;;;;;;;;4998558;28;7184;-72
2023/01/20 21:22:21;;;;;;;;;;;;;;;;;;4998912;28;7270;-71
2023/01/20 21:24:47;;;;;;;;;;;;;;;;;;4998871;28;6936;-71
2023/01/20 21:27:13;;;;;;;;;;;;;;;;;;4998544;28;7077;-71
2023/01/20 21:32:42;;;;;;;;;;;;;;;;;;4998177;28;6681;-71
2023/01/20 21:35:20;;;;;;;;;;;;;;;;;;4998635;28;6995;-71
2023/01/20 21:37:46;;;;;;;;;;;;;;;;;;4998625;28;7150;-71
2023/01/20 21:40:12;;;;;;;;;;;;;;;;;;4998417;28;6947;-71
2023/01/20 21:42:37;;;;;;;;;;;;;;;;;;4998194;28;7881;-71
2023/01/20 21:52:39;;;;;;;;;;;;;;;;;;4998701;28;6905;-71
2023/01/20 21:57:05;;;;;;;;;;;;;;;;;;4997983;28;6908;-71
2023/01/20 21:59:30;;;;;;;;;;;;;;;;;;4998670;28;7034;-71
2023/01/20 22:01:59;;;;;;;;;;;;;;;;;;4978040;28;8450;-72
2023/01/20 22:04:24;;;;;;;;;;;;;;;;;;4997504;28;7207;-72
2023/01/20 22:07:20;;;;;;;;;;;;;;;;;;4998469;28;7107;-71
2023/01/20 22:09:45;;;;;;;;;;;;;;;;;;4998280;28;6991;-71
2023/01/20 22:12:11;;;;;;;;;;;;;;;;;;4997769;28;7077;-71
2023/01/20 22:14:37;;;;;;;;;;;;;;;;;;4998575;28;6823;-71
2023/01/20 22:23:04;;;;;;;;;;;;;;;;;;4997834;28;6960;-71
2023/01/20 22:25:49;;;;;;;;;;;;;;;;;;4997953;28;7268;-68
2023/01/20 22:28:15;;;;;;;;;;;;;;;;;;4996688;28;7042;-68
2023/01/20 22:31:08;;;;;;;;;;;;;;;;;;4997447;28;7125;-68
2023/01/20 22:33:33;;;;;;;;;;;;;;;;;;4997151;28;8986;-67
2023/01/20 22:35:59;;;;;;;;;;;;;;;;;;4997183;28;7929;-67
2023/01/20 22:38:25;;;;;;;;;;;;;;;;;;4997099;28;7124;-67
2023/01/20 22:41:11;;;;;;;;;;;;;;;;;;4997925;28;7197;-67
2023/01/20 22:43:38;;;;;;;;;;;;;;;;;;4997323;28;7113;-67
2023/01/20 22:46:38;;;;;;;;;;;;;;;;;;4997270;28;7290;-67
2023/01/20 22:49:03;;;;;;;;;;;;;;;;;;4997878;28;7387;-67
2023/01/20 22:52:00;;;;;;;;;;;;;;;;;;4997492;28;7009;-67
2023/01/20 22:54:25;;;;;;;;;;;;;;;;;;4996786;28;7170;-67
2023/01/20 22:56:51;;;;;;;;;;;;;;;;;;4996882;28;7011;-67
2023/01/20 22:59:16;;;;;;;;;;;;;;;;;;4997016;28;7005;-67
2023/01/20 23:01:42;;;;;;;;;;;;;;;;;;4997801;28;6934;-67
2023/01/20 23:04:08;;;;;;;;;;;;;;;;;;4994066;28;7033;-67
2023/01/20 23:09:36;;;;;;;;;;;;;;;;;;4996547;28;6681;-67
2023/01/20 23:12:02;;;;;;;;;;;;;;;;;;4996565;28;6923;-67
2023/01/20 23:14:58;;;;;;;;;;;;;;;;;;4996717;28;7268;-67
2023/01/20 23:17:27;;;;;;;;;;;;;;;;;;4996764;28;7374;-67
2023/01/20 23:19:54;;;;;;;;;;;;;;;;;;4997036;28;7123;-67
2023/01/20 23:22:21;;;;;;;;;;;;;;;;;;4996669;28;6913;-67
2023/01/20 23:27:53;;;;;;;;;;;;;;;;;;4996493;28;6917;-67
2023/01/20 23:30:19;;;;;;;;;;;;;;;;;;4996503;28;7218;-67
2023/01/20 23:32:45;;;;;;;;;;;;;;;;;;4996307;28;7116;-67
2023/01/20 23:35:10;;;;;;;;;;;;;;;;;;4997018;28;7190;-67
2023/01/20 23:37:36;;;;;;;;;;;;;;;;;;4996548;28;6917;-67
2023/01/20 23:42:56;;;;;;;;;;;;;;;;;;4997284;28;6996;-67
2023/01/20 23:45:21;;;;;;;;;;;;;;;;;;4996440;28;7149;-67
2023/01/20 23:48:24;;;;;;;;;;;;;;;;;;4995779;28;6984;-67
2023/01/20 23:50:50;;;;;;;;;;;;;;;;;;4996336;28;7108;-67
2023/01/20 23:53:16;;;;;;;;;;;;;;;;;;4996141;28;7518;-67
